sensor_id;sensor_type;location;lat;lon;timestamp;temperature;humidity
52643;DHT22;38531;53.296;6.614;2023-05-16T00:01:54;8.80;99.90
52643;DHT22;38531;53.296;6.614;2023-05-16T00:10:06;8.70;99.90
52643;DHT22;38531;53.296;6.614;2023-05-16T00:17:25;8.80;99.90
52643;DHT22;38531;53.296;6.614;2023-05-16T00:55:48;8.50;99.90
52643;DHT22;38531;53.296;6.614;2023-05-16T01:10:39;8.40;99.90
52643;DHT22;38531;53.296;6.614;2023-05-16T01:20:58;8.50;99.90
52643;DHT22;38531;53.296;6.614;2023-05-16T01:28:28;8.40;99.90
52643;DHT22;38531;53.296;6.614;2023-05-16T01:35:11;8.40;99.90
52643;DHT22;38531;53.296;6.614;2023-05-16T01:43:07;8.40;99.90
52643;DHT22;38531;53.296;6.614;2023-05-16T02:10:13;8.30;99.90
52643;DHT22;38531;53.296;6.614;2023-05-16T02:14:16;8.30;99.90
52643;DHT22;38531;53.296;6.614;2023-05-16T02:23:01;8.30;99.90
52643;DHT22;38531;53.296;6.614;2023-05-16T02:35:36;8.20;99.90
52643;DHT22;38531;53.296;6.614;2023-05-16T03:00:11;8.10;99.90
52643;DHT22;38531;53.296;6.614;2023-05-16T03:15:12;8.00;99.90
52643;DHT22;38531;53.296;6.614;2023-05-16T03:19:19;7.90;99.90
52643;DHT22;38531;53.296;6.614;2023-05-16T03:30:25;7.80;99.90
52643;DHT22;38531;53.296;6.614;2023-05-16T03:33:51;7.70;99.90
52643;DHT22;38531;53.296;6.614;2023-05-16T03:37:18;7.70;99.90
52643;DHT22;38531;53.296;6.614;2023-05-16T03:40:37;7.70;99.90
52643;DHT22;38531;53.296;6.614;2023-05-16T03:43:46;7.60;99.90
52643;DHT22;38531;53.296;6.614;2023-05-16T03:46:53;7.60;99.90
52643;DHT22;38531;53.296;6.614;2023-05-16T03:49:57;7.60;99.90
52643;DHT22;38531;53.296;6.614;2023-05-16T03:52:58;7.60;99.90
52643;DHT22;38531;53.296;6.614;2023-05-16T03:56:14;7.60;99.90
52643;DHT22;38531;53.296;6.614;2023-05-16T03:59:28;7.60;99.90
52643;DHT22;38531;53.296;6.614;2023-05-16T04:02:33;7.70;99.90
52643;DHT22;38531;53.296;6.614;2023-05-16T04:05:36;7.40;99.90
52643;DHT22;38531;53.296;6.614;2023-05-16T04:08:36;7.70;99.90
52643;DHT22;38531;53.296;6.614;2023-05-16T04:11:35;7.80;99.90
52643;DHT22;38531;53.296;6.614;2023-05-16T04:14:50;7.80;99.90
52643;DHT22;38531;53.296;6.614;2023-05-16T04:18:17;7.90;99.90
52643;DHT22;38531;53.296;6.614;2023-05-16T04:21:35;8.00;99.90
52643;DHT22;38531;53.296;6.614;2023-05-16T04:24:48;8.00;99.90
52643;DHT22;38531;53.296;6.614;2023-05-16T04:28:22;8.00;99.90
52643;DHT22;38531;53.296;6.614;2023-05-16T04:31:49;8.10;99.90
52643;DHT22;38531;53.296;6.614;2023-05-16T04:34:56;8.10;99.90
52643;DHT22;38531;53.296;6.614;2023-05-16T04:41:52;8.20;99.90
52643;DHT22;38531;53.296;6.614;2023-05-16T04:48:25;8.30;99.90
52643;DHT22;38531;53.296;6.614;2023-05-16T04:51:51;8.40;99.90
52643;DHT22;38531;53.296;6.614;2023-05-16T04:54:55;8.40;99.90
52643;DHT22;38531;53.296;6.614;2023-05-16T04:57:56;8.50;99.90
52643;DHT22;38531;53.296;6.614;2023-05-16T05:01:01;8.60;99.90
52643;DHT22;38531;53.296;6.614;2023-05-16T05:04:08;8.60;99.90
52643;DHT22;38531;53.296;6.614;2023-05-16T05:10:50;8.70;99.90
52643;DHT22;38531;53.296;6.614;2023-05-16T05:13:56;8.70;99.90
52643;DHT22;38531;53.296;6.614;2023-05-16T05:24:12;8.90;99.90
52643;DHT22;38531;53.296;6.614;2023-05-16T05:26:58;9.10;99.90
52643;DHT22;38531;53.296;6.614;2023-05-16T05:30:01;9.10;99.90
52643;DHT22;38531;53.296;6.614;2023-05-16T05:32:43;9.30;99.90
52643;DHT22;38531;53.296;6.614;2023-05-16T05:39:52;9.50;99.90
52643;DHT22;38531;53.296;6.614;2023-05-16T05:42:40;9.60;99.90
52643;DHT22;38531;53.296;6.614;2023-05-16T05:45:20;9.80;99.90
52643;DHT22;38531;53.296;6.614;2023-05-16T05:48:49;9.80;99.90
52643;DHT22;38531;53.296;6.614;2023-05-16T05:52:03;9.90;99.90
52643;DHT22;38531;53.296;6.614;2023-05-16T05:55:06;10.00;99.90
52643;DHT22;38531;53.296;6.614;2023-05-16T05:58:02;10.00;99.90
52643;DHT22;38531;53.296;6.614;2023-05-16T06:01:10;10.10;99.90
52643;DHT22;38531;53.296;6.614;2023-05-16T06:04:20;10.20;99.90
52643;DHT22;38531;53.296;6.614;2023-05-16T06:07:47;10.30;99.90
52643;DHT22;38531;53.296;6.614;2023-05-16T06:11:05;10.40;99.90
52643;DHT22;38531;53.296;6.614;2023-05-16T06:14:16;10.40;99.90
52643;DHT22;38531;53.296;6.614;2023-05-16T06:21:06;10.50;99.90
52643;DHT22;38531;53.296;6.614;2023-05-16T06:24:12;10.60;99.90
52643;DHT22;38531;53.296;6.614;2023-05-16T06:27:18;10.70;99.90
52643;DHT22;38531;53.296;6.614;2023-05-16T06:30:10;10.90;99.90
52643;DHT22;38531;53.296;6.614;2023-05-16T06:33:20;11.00;99.90
52643;DHT22;38531;53.296;6.614;2023-05-16T06:36:43;11.10;99.90
52643;DHT22;38531;53.296;6.614;2023-05-16T06:39:30;11.20;99.90
52643;DHT22;38531;53.296;6.614;2023-05-16T06:42:47;11.20;99.90
52643;DHT22;38531;53.296;6.614;2023-05-16T06:46:02;11.40;99.90
52643;DHT22;38531;53.296;6.614;2023-05-16T06:49:13;11.40;99.90
52643;DHT22;38531;53.296;6.614;2023-05-16T06:52:24;11.40;99.90
52643;DHT22;38531;53.296;6.614;2023-05-16T06:55:48;11.40;99.90
52643;DHT22;38531;53.296;6.614;2023-05-16T06:59:12;11.40;99.90
52643;DHT22;38531;53.296;6.614;2023-05-16T07:02:19;11.50;99.90
52643;DHT22;38531;53.296;6.614;2023-05-16T07:05:24;11.60;99.90
52643;DHT22;38531;53.296;6.614;2023-05-16T07:08:25;11.80;99.90
52643;DHT22;38531;53.296;6.614;2023-05-16T07:11:34;11.80;99.90
52643;DHT22;38531;53.296;6.614;2023-05-16T07:14:27;12.10;99.90
52643;DHT22;38531;53.296;6.614;2023-05-16T07:17:42;12.20;99.90
52643;DHT22;38531;53.296;6.614;2023-05-16T07:20:53;12.30;99.90
52643;DHT22;38531;53.296;6.614;2023-05-16T07:27:28;11.50;99.90
52643;DHT22;38531;53.296;6.614;2023-05-16T07:30:45;11.80;99.90
52643;DHT22;38531;53.296;6.614;2023-05-16T07:33:53;11.90;99.90
52643;DHT22;38531;53.296;6.614;2023-05-16T07:37:07;11.90;99.90
52643;DHT22;38531;53.296;6.614;2023-05-16T07:40:12;11.70;99.90
52643;DHT22;38531;53.296;6.614;2023-05-16T07:42:55;11.80;99.90
52643;DHT22;38531;53.296;6.614;2023-05-16T07:46:16;11.70;99.90
52643;DHT22;38531;53.296;6.614;2023-05-16T07:49:46;11.80;99.90
52643;DHT22;38531;53.296;6.614;2023-05-16T07:52:46;11.90;99.90
52643;DHT22;38531;53.296;6.614;2023-05-16T07:55:55;11.90;99.90
52643;DHT22;38531;53.296;6.614;2023-05-16T07:58:58;12.20;99.90
52643;DHT22;38531;53.296;6.614;2023-05-16T08:02:02;12.30;99.90
52643;DHT22;38531;53.296;6.614;2023-05-16T08:05:27;12.30;99.90
52643;DHT22;38531;53.296;6.614;2023-05-16T08:08:17;12.20;99.90
52643;DHT22;38531;53.296;6.614;2023-05-16T08:10:46;12.10;99.90
52643;DHT22;38531;53.296;6.614;2023-05-16T08:13:13;12.20;99.90
52643;DHT22;38531;53.296;6.614;2023-05-16T08:15:40;12.40;99.90
52643;DHT22;38531;53.296;6.614;2023-05-16T08:18:13;12.70;99.90
52643;DHT22;38531;53.296;6.614;2023-05-16T08:20:41;12.80;99.90
52643;DHT22;38531;53.296;6.614;2023-05-16T08:23:09;12.70;99.90
52643;DHT22;38531;53.296;6.614;2023-05-16T08:25:38;12.70;99.90
52643;DHT22;38531;53.296;6.614;2023-05-16T08:28:08;12.80;99.90
52643;DHT22;38531;53.296;6.614;2023-05-16T08:30:37;13.00;99.90
52643;DHT22;38531;53.296;6.614;2023-05-16T08:33:12;13.00;99.90
52643;DHT22;38531;53.296;6.614;2023-05-16T08:35:50;13.10;99.90
52643;DHT22;38531;53.296;6.614;2023-05-16T08:38:27;13.00;99.90
52643;DHT22;38531;53.296;6.614;2023-05-16T08:40:57;13.10;99.90
52643;DHT22;38531;53.296;6.614;2023-05-16T08:43:27;13.30;99.90
52643;DHT22;38531;53.296;6.614;2023-05-16T08:46:00;13.40;99.90
52643;DHT22;38531;53.296;6.614;2023-05-16T08:48:32;13.00;99.90
52643;DHT22;38531;53.296;6.614;2023-05-16T08:51:01;13.10;99.90
52643;DHT22;38531;53.296;6.614;2023-05-16T08:53:35;12.80;99.90
52643;DHT22;38531;53.296;6.614;2023-05-16T08:56:11;12.80;99.90
52643;DHT22;38531;53.296;6.614;2023-05-16T08:58:41;13.00;99.90
52643;DHT22;38531;53.296;6.614;2023-05-16T09:01:19;13.40;99.90
52643;DHT22;38531;53.296;6.614;2023-05-16T09:04:02;13.70;99.90
52643;DHT22;38531;53.296;6.614;2023-05-16T09:06:36;13.90;99.90
52643;DHT22;38531;53.296;6.614;2023-05-16T09:09:06;13.60;99.90
52643;DHT22;38531;53.296;6.614;2023-05-16T09:11:39;13.60;99.90
52643;DHT22;38531;53.296;6.614;2023-05-16T09:17:46;13.80;99.90
52643;DHT22;38531;53.296;6.614;2023-05-16T09:20:50;14.00;99.90
52643;DHT22;38531;53.296;6.614;2023-05-16T09:27:29;14.10;99.90
52643;DHT22;38531;53.296;6.614;2023-05-16T09:31:23;13.80;99.90
52643;DHT22;38531;53.296;6.614;2023-05-16T09:34:36;13.70;99.90
52643;DHT22;38531;53.296;6.614;2023-05-16T09:37:56;13.80;99.90
52643;DHT22;38531;53.296;6.614;2023-05-16T09:41:01;13.50;99.90
52643;DHT22;38531;53.296;6.614;2023-05-16T09:44:12;13.40;99.90
52643;DHT22;38531;53.296;6.614;2023-05-16T09:51:23;12.80;99.90
52643;DHT22;38531;53.296;6.614;2023-05-16T09:54:50;13.20;99.90
52643;DHT22;38531;53.296;6.614;2023-05-16T09:58:08;13.50;99.90
52643;DHT22;38531;53.296;6.614;2023-05-16T10:00:58;13.90;99.90
52643;DHT22;38531;53.296;6.614;2023-05-16T10:03:45;13.80;99.90
52643;DHT22;38531;53.296;6.614;2023-05-16T10:06:53;13.80;99.90
52643;DHT22;38531;53.296;6.614;2023-05-16T10:09:47;14.10;99.90
52643;DHT22;38531;53.296;6.614;2023-05-16T10:12:47;13.90;99.90
52643;DHT22;38531;53.296;6.614;2023-05-16T10:15:31;13.50;99.90
52643;DHT22;38531;53.296;6.614;2023-05-16T10:18:48;12.40;99.90
52643;DHT22;38531;53.296;6.614;2023-05-16T10:21:59;11.90;99.90
52643;DHT22;38531;53.296;6.614;2023-05-16T10:25:19;11.60;99.90
52643;DHT22;38531;53.296;6.614;2023-05-16T10:28:32;11.50;99.90
52643;DHT22;38531;53.296;6.614;2023-05-16T10:31:27;11.70;99.90
52643;DHT22;38531;53.296;6.614;2023-05-16T10:38:26;12.20;99.90
52643;DHT22;38531;53.296;6.614;2023-05-16T10:41:24;12.60;99.90
52643;DHT22;38531;53.296;6.614;2023-05-16T10:44:15;12.90;99.90
52643;DHT22;38531;53.296;6.614;2023-05-16T10:47:36;12.90;99.90
52643;DHT22;38531;53.296;6.614;2023-05-16T10:50:42;12.70;99.90
52643;DHT22;38531;53.296;6.614;2023-05-16T10:57:19;13.10;99.90
52643;DHT22;38531;53.296;6.614;2023-05-16T10:59:59;13.10;99.90
52643;DHT22;38531;53.296;6.614;2023-05-16T11:07:15;13.10;99.90
52643;DHT22;38531;53.296;6.614;2023-05-16T11:13:52;13.30;99.90
52643;DHT22;38531;53.296;6.614;2023-05-16T11:20:06;13.60;99.90
52643;DHT22;38531;53.296;6.614;2023-05-16T11:23:26;13.50;99.90
52643;DHT22;38531;53.296;6.614;2023-05-16T11:30:14;13.90;99.90
52643;DHT22;38531;53.296;6.614;2023-05-16T11:33:05;14.00;99.90
52643;DHT22;38531;53.296;6.614;2023-05-16T11:39:50;14.40;99.90
52643;DHT22;38531;53.296;6.614;2023-05-16T11:42:36;14.50;99.90
52643;DHT22;38531;53.296;6.614;2023-05-16T11:49:02;14.50;99.90
52643;DHT22;38531;53.296;6.614;2023-05-16T11:51:50;14.40;99.90
52643;DHT22;38531;53.296;6.614;2023-05-16T11:55:03;14.30;99.90
52643;DHT22;38531;53.296;6.614;2023-05-16T11:58:38;14.00;99.90
52643;DHT22;38531;53.296;6.614;2023-05-16T12:01:58;13.90;99.90
52643;DHT22;38531;53.296;6.614;2023-05-16T12:05:06;13.80;99.90
52643;DHT22;38531;53.296;6.614;2023-05-16T12:08:36;13.70;99.90
52643;DHT22;38531;53.296;6.614;2023-05-16T12:11:43;13.30;99.90
52643;DHT22;38531;53.296;6.614;2023-05-16T12:14:56;13.20;99.90
52643;DHT22;38531;53.296;6.614;2023-05-16T12:18:09;13.30;99.90
52643;DHT22;38531;53.296;6.614;2023-05-16T12:24:20;13.60;99.90
52643;DHT22;38531;53.296;6.614;2023-05-16T12:27:10;13.60;99.90
52643;DHT22;38531;53.296;6.614;2023-05-16T12:30:07;13.60;99.90
52643;DHT22;38531;53.296;6.614;2023-05-16T12:33:11;13.60;99.90
52643;DHT22;38531;53.296;6.614;2023-05-16T12:36:43;13.60;99.90
52643;DHT22;38531;53.296;6.614;2023-05-16T12:40:05;13.60;99.90
52643;DHT22;38531;53.296;6.614;2023-05-16T12:43:29;13.60;99.90
52643;DHT22;38531;53.296;6.614;2023-05-16T12:46:51;13.40;99.90
52643;DHT22;38531;53.296;6.614;2023-05-16T12:49:56;13.10;99.90
52643;DHT22;38531;53.296;6.614;2023-05-16T12:53:20;13.10;99.90
52643;DHT22;38531;53.296;6.614;2023-05-16T12:56:16;13.30;99.90
52643;DHT22;38531;53.296;6.614;2023-05-16T12:59:38;13.50;99.90
52643;DHT22;38531;53.296;6.614;2023-05-16T13:02:48;13.50;99.90
52643;DHT22;38531;53.296;6.614;2023-05-16T13:05:34;13.80;99.90
52643;DHT22;38531;53.296;6.614;2023-05-16T13:08:05;14.20;99.90
52643;DHT22;38531;53.296;6.614;2023-05-16T13:10:34;14.30;99.90
52643;DHT22;38531;53.296;6.614;2023-05-16T13:13:07;14.00;99.90
52643;DHT22;38531;53.296;6.614;2023-05-16T13:15:38;14.00;99.90
52643;DHT22;38531;53.296;6.614;2023-05-16T13:18:17;13.80;99.90
52643;DHT22;38531;53.296;6.614;2023-05-16T13:20:46;13.60;99.90
52643;DHT22;38531;53.296;6.614;2023-05-16T13:23:16;13.40;99.90
52643;DHT22;38531;53.296;6.614;2023-05-16T13:25:53;13.30;99.90
52643;DHT22;38531;53.296;6.614;2023-05-16T13:28:34;13.00;99.90
52643;DHT22;38531;53.296;6.614;2023-05-16T13:31:14;13.20;99.90
52643;DHT22;38531;53.296;6.614;2023-05-16T13:33:48;13.50;99.90
52643;DHT22;38531;53.296;6.614;2023-05-16T13:36:44;14.00;99.90
52643;DHT22;38531;53.296;6.614;2023-05-16T13:39:19;14.10;99.90
52643;DHT22;38531;53.296;6.614;2023-05-16T13:42:01;14.00;99.90
52643;DHT22;38531;53.296;6.614;2023-05-16T13:44:36;14.20;99.90
52643;DHT22;38531;53.296;6.614;2023-05-16T13:47:10;14.60;99.90
52643;DHT22;38531;53.296;6.614;2023-05-16T13:49:44;14.50;99.90
52643;DHT22;38531;53.296;6.614;2023-05-16T13:52:15;14.60;99.90
52643;DHT22;38531;53.296;6.614;2023-05-16T13:54:44;14.60;99.90
52643;DHT22;38531;53.296;6.614;2023-05-16T14:01:14;14.70;99.90
52643;DHT22;38531;53.296;6.614;2023-05-16T14:04:03;14.80;99.90
52643;DHT22;38531;53.296;6.614;2023-05-16T14:06:36;14.90;99.90
52643;DHT22;38531;53.296;6.614;2023-05-16T14:09:39;14.70;99.90
52643;DHT22;38531;53.296;6.614;2023-05-16T14:12:11;14.70;99.90
52643;DHT22;38531;53.296;6.614;2023-05-16T14:14:56;14.80;99.90
52643;DHT22;38531;53.296;6.614;2023-05-16T14:20:25;14.30;99.90
52643;DHT22;38531;53.296;6.614;2023-05-16T14:23:11;14.00;99.90
52643;DHT22;38531;53.296;6.614;2023-05-16T14:25:46;13.90;99.90
52643;DHT22;38531;53.296;6.614;2023-05-16T14:28:21;13.60;99.90
52643;DHT22;38531;53.296;6.614;2023-05-16T14:30:50;13.30;99.90
52643;DHT22;38531;53.296;6.614;2023-05-16T14:33:29;13.00;99.90
52643;DHT22;38531;53.296;6.614;2023-05-16T14:36:53;13.40;99.90
52643;DHT22;38531;53.296;6.614;2023-05-16T14:39:26;13.20;99.90
52643;DHT22;38531;53.296;6.614;2023-05-16T14:41:53;13.20;99.90
52643;DHT22;38531;53.296;6.614;2023-05-16T14:44:20;13.50;99.90
52643;DHT22;38531;53.296;6.614;2023-05-16T14:47:11;13.60;99.90
52643;DHT22;38531;53.296;6.614;2023-05-16T14:50:00;14.10;99.90
52643;DHT22;38531;53.296;6.614;2023-05-16T14:52:40;14.00;99.90
52643;DHT22;38531;53.296;6.614;2023-05-16T14:58:29;14.30;99.90
52643;DHT22;38531;53.296;6.614;2023-05-16T15:01:04;14.30;99.90
52643;DHT22;38531;53.296;6.614;2023-05-16T15:03:59;14.40;99.90
52643;DHT22;38531;53.296;6.614;2023-05-16T15:07:30;14.20;99.90
52643;DHT22;38531;53.296;6.614;2023-05-16T15:10:14;14.40;99.90
52643;DHT22;38531;53.296;6.614;2023-05-16T15:13:03;14.90;99.90
52643;DHT22;38531;53.296;6.614;2023-05-16T15:15:38;14.90;99.90
52643;DHT22;38531;53.296;6.614;2023-05-16T15:18:44;14.60;99.90
52643;DHT22;38531;53.296;6.614;2023-05-16T15:21:57;14.30;99.90
52643;DHT22;38531;53.296;6.614;2023-05-16T15:25:16;14.20;99.90
52643;DHT22;38531;53.296;6.614;2023-05-16T15:31:49;13.80;99.90
52643;DHT22;38531;53.296;6.614;2023-05-16T15:38:55;13.50;99.90
52643;DHT22;38531;53.296;6.614;2023-05-16T15:42:21;13.40;99.90
52643;DHT22;38531;53.296;6.614;2023-05-16T15:45:28;13.40;99.90
52643;DHT22;38531;53.296;6.614;2023-05-16T15:52:05;13.40;99.90
52643;DHT22;38531;53.296;6.614;2023-05-16T15:55:04;13.40;99.90
52643;DHT22;38531;53.296;6.614;2023-05-16T15:58:10;13.40;99.90
52643;DHT22;38531;53.296;6.614;2023-05-16T16:04:35;13.30;99.90
52643;DHT22;38531;53.296;6.614;2023-05-16T16:07:49;13.20;99.90
52643;DHT22;38531;53.296;6.614;2023-05-16T16:11:08;13.20;99.90
52643;DHT22;38531;53.296;6.614;2023-05-16T16:14:19;13.20;99.90
52643;DHT22;38531;53.296;6.614;2023-05-16T16:17:48;13.20;99.90
52643;DHT22;38531;53.296;6.614;2023-05-16T16:20:55;13.20;99.90
52643;DHT22;38531;53.296;6.614;2023-05-16T16:27:36;13.10;99.90
52643;DHT22;38531;53.296;6.614;2023-05-16T16:30:44;13.20;99.90
52643;DHT22;38531;53.296;6.614;2023-05-16T16:34:30;13.30;99.90
52643;DHT22;38531;53.296;6.614;2023-05-16T16:37:45;13.30;99.90
52643;DHT22;38531;53.296;6.614;2023-05-16T16:40:48;13.30;99.90
52643;DHT22;38531;53.296;6.614;2023-05-16T16:43:52;13.50;99.90
52643;DHT22;38531;53.296;6.614;2023-05-16T16:50:12;13.80;99.90
52643;DHT22;38531;53.296;6.614;2023-05-16T16:53:17;13.80;99.90
52643;DHT22;38531;53.296;6.614;2023-05-16T16:56:24;13.70;99.90
52643;DHT22;38531;53.296;6.614;2023-05-16T17:03:42;13.40;99.90
52643;DHT22;38531;53.296;6.614;2023-05-16T17:07:52;13.20;99.90
52643;DHT22;38531;53.296;6.614;2023-05-16T17:14:31;13.10;99.90
52643;DHT22;38531;53.296;6.614;2023-05-16T17:17:39;13.00;99.90
52643;DHT22;38531;53.296;6.614;2023-05-16T17:20:51;12.90;99.90
52643;DHT22;38531;53.296;6.614;2023-05-16T17:24:20;12.90;99.90
52643;DHT22;38531;53.296;6.614;2023-05-16T17:27:31;12.90;99.90
52643;DHT22;38531;53.296;6.614;2023-05-16T17:30:51;12.90;99.90
52643;DHT22;38531;53.296;6.614;2023-05-16T17:33:59;12.80;99.90
52643;DHT22;38531;53.296;6.614;2023-05-16T17:37:04;12.90;99.90
52643;DHT22;38531;53.296;6.614;2023-05-16T17:40:44;12.70;99.90
52643;DHT22;38531;53.296;6.614;2023-05-16T17:43:51;12.70;99.90
52643;DHT22;38531;53.296;6.614;2023-05-16T17:47:00;12.50;99.90
52643;DHT22;38531;53.296;6.614;2023-05-16T17:49:39;12.50;99.90
52643;DHT22;38531;53.296;6.614;2023-05-16T17:52:27;12.50;99.90
52643;DHT22;38531;53.296;6.614;2023-05-16T17:55:36;12.40;99.90
52643;DHT22;38531;53.296;6.614;2023-05-16T17:58:48;12.40;99.90
52643;DHT22;38531;53.296;6.614;2023-05-16T18:01:44;12.30;99.90
52643;DHT22;38531;53.296;6.614;2023-05-16T18:04:23;12.20;99.90
52643;DHT22;38531;53.296;6.614;2023-05-16T18:07:41;12.20;99.90
52643;DHT22;38531;53.296;6.614;2023-05-16T18:10:51;12.10;99.90
52643;DHT22;38531;53.296;6.614;2023-05-16T18:14:28;12.10;99.90
52643;DHT22;38531;53.296;6.614;2023-05-16T18:17:59;11.90;99.90
52643;DHT22;38531;53.296;6.614;2023-05-16T18:21:19;11.90;99.90
52643;DHT22;38531;53.296;6.614;2023-05-16T18:24:23;11.90;99.90
52643;DHT22;38531;53.296;6.614;2023-05-16T18:27:28;11.80;99.90
52643;DHT22;38531;53.296;6.614;2023-05-16T18:30:39;11.90;99.90
52643;DHT22;38531;53.296;6.614;2023-05-16T18:37:03;11.90;99.90
52643;DHT22;38531;53.296;6.614;2023-05-16T18:40:47;11.90;99.90
52643;DHT22;38531;53.296;6.614;2023-05-16T18:43:50;11.90;99.90
52643;DHT22;38531;53.296;6.614;2023-05-16T18:46:52;11.90;99.90
52643;DHT22;38531;53.296;6.614;2023-05-16T18:50:03;11.80;99.90
52643;DHT22;38531;53.296;6.614;2023-05-16T18:53:00;11.70;99.90
52643;DHT22;38531;53.296;6.614;2023-05-16T18:56:12;11.60;99.90
52643;DHT22;38531;53.296;6.614;2023-05-16T18:59:42;11.60;99.90
52643;DHT22;38531;53.296;6.614;2023-05-16T19:06:10;11.50;99.90
52643;DHT22;38531;53.296;6.614;2023-05-16T19:08:37;11.40;99.90
52643;DHT22;38531;53.296;6.614;2023-05-16T19:11:07;11.40;99.90
52643;DHT22;38531;53.296;6.614;2023-05-16T19:13:41;11.40;99.90
52643;DHT22;38531;53.296;6.614;2023-05-16T19:16:18;11.40;99.90
52643;DHT22;38531;53.296;6.614;2023-05-16T19:18:50;11.30;99.90
52643;DHT22;38531;53.296;6.614;2023-05-16T19:21:19;11.30;99.90
52643;DHT22;38531;53.296;6.614;2023-05-16T19:23:50;11.30;99.90
52643;DHT22;38531;53.296;6.614;2023-05-16T19:26:19;11.00;99.90
52643;DHT22;38531;53.296;6.614;2023-05-16T19:28:46;11.20;99.90
52643;DHT22;38531;53.296;6.614;2023-05-16T19:31:14;11.10;99.90
52643;DHT22;38531;53.296;6.614;2023-05-16T19:33:40;11.10;99.90
52643;DHT22;38531;53.296;6.614;2023-05-16T19:36:10;11.00;99.90
52643;DHT22;38531;53.296;6.614;2023-05-16T19:38:42;11.00;99.90
52643;DHT22;38531;53.296;6.614;2023-05-16T19:41:12;11.00;99.90
52643;DHT22;38531;53.296;6.614;2023-05-16T19:43:47;10.90;99.90
52643;DHT22;38531;53.296;6.614;2023-05-16T19:46:28;10.90;99.90
52643;DHT22;38531;53.296;6.614;2023-05-16T19:49:13;10.80;99.90
52643;DHT22;38531;53.296;6.614;2023-05-16T19:52:11;10.80;99.90
52643;DHT22;38531;53.296;6.614;2023-05-16T20:10:48;10.50;99.90
52643;DHT22;38531;53.296;6.614;2023-05-16T20:14:26;10.60;99.90
52643;DHT22;38531;53.296;6.614;2023-05-16T20:51:02;10.70;99.90
52643;DHT22;38531;53.296;6.614;2023-05-16T21:11:25;10.70;99.90
52643;DHT22;38531;53.296;6.614;2023-05-16T21:19:30;10.70;99.90
52643;DHT22;38531;53.296;6.614;2023-05-16T21:35:38;10.70;99.90
52643;DHT22;38531;53.296;6.614;2023-05-16T22:06:15;10.50;99.90
52643;DHT22;38531;53.296;6.614;2023-05-16T22:10:09;10.40;99.90
52643;DHT22;38531;53.296;6.614;2023-05-16T22:17:09;10.40;99.90
52643;DHT22;38531;53.296;6.614;2023-05-16T22:21:13;10.30;99.90
52643;DHT22;38531;53.296;6.614;2023-05-16T22:25:05;10.20;99.90
52643;DHT22;38531;53.296;6.614;2023-05-16T22:28:59;10.30;99.90
52643;DHT22;38531;53.296;6.614;2023-05-16T22:45:11;10.20;99.90
52643;DHT22;38531;53.296;6.614;2023-05-16T22:48:17;10.10;99.90
52643;DHT22;38531;53.296;6.614;2023-05-16T22:54:56;9.90;99.90
52643;DHT22;38531;53.296;6.614;2023-05-16T22:58:46;9.80;99.90
52643;DHT22;38531;53.296;6.614;2023-05-16T23:14:27;9.30;99.90
52643;DHT22;38531;53.296;6.614;2023-05-16T23:25:33;9.10;99.90
52643;DHT22;38531;53.296;6.614;2023-05-16T23:37:17;8.90;99.90
52643;DHT22;38531;53.296;6.614;2023-05-16T23:44:23;8.90;99.90
52643;DHT22;38531;53.296;6.614;2023-05-16T23:52:07;8.90;99.90
52643;DHT22;38531;53.296;6.614;2023-05-16T23:55:10;8.90;99.90
